Time;durP1;ratioP1;P1;durP2;ratioP2;P2;SDS_P1;SDS_P2;PMS_P1;PMS_P2;Temp;Humidity;BMP_temperature;BMP_pressure;BME280_temperature;BME280_humidity;BME280_pressure;Samples;Min_cycle;Max_cycle;Signal;HPM_P1;HPM_P2
2024/02/11 00:01:58;;;;;;;14.27;2.70;;;;;;;7.06;100.00;97661.94;5079033;28;20420;-71
2024/02/11 00:04:24;;;;;;;18.70;2.92;;;;;;;7.06;100.00;97674.94;5047781;28;20036;-71
2024/02/11 00:06:49;;;;;;;15.43;2.67;;;;;;;7.06;100.00;97664.72;5065206;28;20577;-71
2024/02/11 00:09:15;;;;;;;14.07;3.03;;;;;;;7.05;100.00;97665.88;5065879;28;20471;-71
2024/02/11 00:11:40;;;;;;;12.68;2.55;;;;;;;7.01;100.00;97670.44;5053497;28;20031;-71
2024/02/11 00:14:07;;;;;;;14.30;2.53;;;;;;;7.02;100.00;97672.06;5062092;28;20024;-71
2024/02/11 00:16:32;;;;;;;13.30;2.38;;;;;;;7.01;100.00;97684.25;5058553;28;20031;-71
2024/02/11 00:18:57;;;;;;;11.38;2.20;;;;;;;7.02;100.00;97680.34;5066831;28;20440;-72
2024/02/11 00:21:23;;;;;;;16.50;2.17;;;;;;;7.03;100.00;97683.91;5085087;28;20032;-71
2024/02/11 00:23:49;;;;;;;15.35;2.67;;;;;;;7.05;100.00;97678.84;5096282;28;20044;-71
2024/02/11 00:26:16;;;;;;;17.08;2.53;;;;;;;7.04;100.00;97674.47;5054510;28;20058;-71
2024/02/11 00:28:41;;;;;;;15.20;2.67;;;;;;;7.01;100.00;97677.91;5063898;28;20036;-71
2024/02/11 00:31:07;;;;;;;14.07;2.55;;;;;;;6.99;100.00;97674.69;5062509;28;20677;-71
2024/02/11 00:33:32;;;;;;;12.45;1.95;;;;;;;6.99;100.00;97672.72;5087031;28;20032;-71
2024/02/11 00:35:59;;;;;;;12.68;2.38;;;;;;;7.01;100.00;97675.16;5070489;28;20053;-71
2024/02/11 00:38:28;;;;;;;12.90;2.50;;;;;;;6.96;100.00;97680.88;5077913;28;20431;-71
2024/02/11 00:40:54;;;;;;;12.18;2.00;;;;;;;6.95;100.00;97674.56;5069315;28;20402;-71
2024/02/11 00:43:19;;;;;;;12.35;2.10;;;;;;;6.99;100.00;97685.72;5062123;28;20020;-71
2024/02/11 00:45:44;;;;;;;17.38;2.40;;;;;;;6.95;100.00;97688.34;5071753;28;20032;-71
2024/02/11 00:48:10;;;;;;;16.15;2.75;;;;;;;6.95;100.00;97693.88;5046047;28;20048;-71
2024/02/11 00:50:36;;;;;;;14.18;2.20;;;;;;;6.93;100.00;97693.41;5027781;28;20036;-71
2024/02/11 00:53:02;;;;;;;9.00;1.85;;;;;;;6.93;100.00;97691.44;5064539;28;20500;-71
2024/02/11 00:55:27;;;;;;;13.90;2.45;;;;;;;6.94;100.00;97697.78;5060995;28;20035;-71
2024/02/11 00:57:54;;;;;;;16.17;2.58;;;;;;;6.93;100.00;97685.91;5053704;28;20389;-71
2024/02/11 01:00:19;;;;;;;18.13;2.83;;;;;;;6.91;100.00;97696.50;5074770;28;20060;-71
2024/02/11 01:02:45;;;;;;;14.45;2.50;;;;;;;6.91;100.00;97695.72;5086333;28;20066;-71
2024/02/11 01:05:10;;;;;;;12.85;2.08;;;;;;;6.89;100.00;97696.03;5052626;28;20032;-71
2024/02/11 01:07:39;;;;;;;12.63;2.05;;;;;;;6.94;100.00;97693.06;5051487;28;20024;-71
2024/02/11 01:10:12;;;;;;;16.60;2.47;;;;;;;6.94;100.00;97704.09;5046684;28;20387;-71
2024/02/11 01:12:43;;;;;;;11.73;1.95;;;;;;;6.90;100.00;97703.16;5061424;28;20039;-71
2024/02/11 01:15:13;;;;;;;13.65;2.15;;;;;;;6.87;100.00;97700.28;5044631;28;20499;-71
2024/02/11 01:17:39;;;;;;;8.70;1.88;;;;;;;6.91;100.00;97704.78;5048486;28;20032;-71
2024/02/11 01:20:07;;;;;;;11.68;1.83;;;;;;;6.87;100.00;97698.31;5079857;28;20043;-71
2024/02/11 01:22:33;;;;;;;12.48;2.03;;;;;;;6.82;100.00;97711.50;5054848;28;20035;-71
2024/02/11 01:24:58;;;;;;;16.02;2.38;;;;;;;6.81;100.00;97716.22;5053228;28;20381;-71
2024/02/11 01:27:24;;;;;;;14.27;2.00;;;;;;;6.79;100.00;97712.19;5083646;28;20043;-71
2024/02/11 01:29:50;;;;;;;11.35;2.00;;;;;;;6.77;100.00;97709.78;5085318;28;20032;-71
2024/02/11 01:32:15;;;;;;;12.15;2.08;;;;;;;6.77;100.00;97717.22;5066542;28;20032;-71
2024/02/11 01:34:41;;;;;;;13.65;1.85;;;;;;;6.77;100.00;97725.50;5057201;28;20062;-71
2024/02/11 01:37:06;;;;;;;13.18;2.20;;;;;;;6.75;100.00;97728.63;5046110;28;20024;-71
2024/02/11 01:39:32;;;;;;;11.25;2.10;;;;;;;6.77;100.00;97729.09;5071003;28;20507;-71
2024/02/11 01:42:00;;;;;;;18.13;2.53;;;;;;;6.79;100.00;97728.75;5052789;28;20032;-71
2024/02/11 01:44:27;;;;;;;15.27;2.38;;;;;;;6.81;100.00;97721.75;5057384;28;20029;-71
2024/02/11 01:46:52;;;;;;;10.25;2.17;;;;;;;6.80;100.00;97720.16;5044348;28;20080;-71
2024/02/11 01:49:18;;;;;;;14.30;2.50;;;;;;;6.83;100.00;97730.50;5048236;28;20028;-71
2024/02/11 01:51:43;;;;;;;8.00;1.95;;;;;;;6.83;100.00;97740.72;5036683;28;20721;-71
2024/02/11 01:54:10;;;;;;;12.18;2.15;;;;;;;6.81;100.00;97740.25;5032379;28;20099;-71
2024/02/11 01:56:35;;;;;;;12.05;1.98;;;;;;;6.79;100.00;97739.78;5033522;28;20784;-71
2024/02/11 01:59:01;;;;;;;7.88;1.55;;;;;;;6.83;100.00;97749.81;5044146;28;20041;-71
2024/02/11 02:01:27;;;;;;;11.55;2.35;;;;;;;6.79;100.00;97751.59;5029969;28;20025;-71
2024/02/11 02:03:53;;;;;;;8.27;1.90;;;;;;;6.79;100.00;97757.13;5050872;28;20021;-71
2024/02/11 02:06:18;;;;;;;8.27;1.70;;;;;;;6.82;100.00;97756.44;5020325;28;20031;-71
2024/02/11 02:08:44;;;;;;;13.15;2.47;;;;;;;6.75;100.00;97761.72;5036406;28;20033;-71
2024/02/11 02:11:10;;;;;;;13.93;2.00;;;;;;;6.78;100.00;97754.72;5036711;28;20075;-71
2024/02/11 02:13:36;;;;;;;13.38;2.03;;;;;;;6.80;100.00;97764.28;5036626;28;20055;-71
2024/02/11 02:16:02;;;;;;;12.95;2.30;;;;;;;6.76;100.00;97771.59;5020527;28;20111;-71
2024/02/11 02:18:34;;;;;;;15.23;2.42;;;;;;;6.77;100.00;97764.97;5020184;28;20115;-71
2024/02/11 02:20:59;;;;;;;12.40;2.33;;;;;;;6.79;100.00;97768.16;5048723;28;20029;-71
2024/02/11 02:23:25;;;;;;;13.85;2.60;;;;;;;6.82;100.00;97773.00;5036456;28;20048;-71
2024/02/11 02:25:50;;;;;;;12.00;2.03;;;;;;;6.78;100.00;97777.59;5053174;28;20060;-71
2024/02/11 02:28:16;;;;;;;9.50;2.33;;;;;;;6.80;100.00;97775.31;5019966;28;20029;-71
2024/02/11 02:30:41;;;;;;;9.57;2.60;;;;;;;6.77;100.00;97780.66;5021911;28;20064;-71
2024/02/11 02:33:07;;;;;;;14.85;2.38;;;;;;;6.77;100.00;97778.75;5036782;28;20029;-71
2024/02/11 02:35:33;;;;;;;17.05;2.67;;;;;;;6.74;100.00;97779.38;5020058;28;20112;-71
2024/02/11 02:37:59;;;;;;;12.73;2.15;;;;;;;6.75;100.00;97786.53;5043040;28;20025;-71
2024/02/11 02:40:26;;;;;;;10.10;1.88;;;;;;;6.74;100.00;97786.88;5052948;28;20098;-71
2024/02/11 02:42:52;;;;;;;12.00;1.77;;;;;;;6.74;100.00;97797.91;5040671;28;20037;-71
2024/02/11 02:45:18;;;;;;;11.77;2.58;;;;;;;6.75;100.00;97797.56;5050508;28;20061;-71
2024/02/11 02:47:46;;;;;;;11.05;2.10;;;;;;;6.75;100.00;97794.81;5055373;28;20392;-71
2024/02/11 02:50:15;;;;;;;9.85;1.98;;;;;;;6.75;100.00;97794.81;5060953;28;20028;-71
2024/02/11 02:52:41;;;;;;;12.30;2.60;;;;;;;6.74;100.00;97790.41;5051992;28;20534;-71
2024/02/11 02:55:07;;;;;;;12.35;2.58;;;;;;;6.76;100.00;97792.84;5058001;28;20028;-71
2024/02/11 02:57:35;;;;;;;16.35;2.60;;;;;;;6.79;100.00;97795.75;5088722;28;20475;-71
2024/02/11 03:00:03;;;;;;;14.48;2.88;;;;;;;6.86;100.00;97795.22;5074799;28;20031;-71
2024/02/11 03:02:28;;;;;;;13.65;1.95;;;;;;;6.83;100.00;97799.47;5071422;28;20397;-71
2024/02/11 03:04:54;;;;;;;14.23;2.10;;;;;;;6.85;100.00;97805.47;5057614;28;20036;-71
2024/02/11 03:07:19;;;;;;;13.52;2.70;;;;;;;6.86;100.00;97812.59;5054017;28;20036;-71
2024/02/11 03:09:45;;;;;;;10.75;2.05;;;;;;;6.85;100.00;97799.94;5090146;28;20077;-71
2024/02/11 03:12:10;;;;;;;15.18;2.65;;;;;;;6.91;100.00;97804.13;5087234;28;20500;-71
2024/02/11 03:14:36;;;;;;;9.73;2.15;;;;;;;6.93;100.00;97807.31;5056755;28;20102;-71
2024/02/11 03:17:03;;;;;;;8.35;2.15;;;;;;;6.98;100.00;97813.81;5052905;28;20020;-71
2024/02/11 03:19:28;;;;;;;11.23;2.33;;;;;;;7.01;100.00;97808.41;5073193;28;20060;-71
2024/02/11 03:21:54;;;;;;;10.45;2.45;;;;;;;7.00;100.00;97817.03;5083642;28;20039;-71
2024/02/11 03:24:19;;;;;;;11.77;2.28;;;;;;;7.01;100.00;97813.94;5037297;28;20025;-71
2024/02/11 03:26:45;;;;;;;13.40;2.25;;;;;;;7.09;100.00;97815.00;5086385;28;20051;-71
2024/02/11 03:29:10;;;;;;;15.10;2.50;;;;;;;7.10;100.00;97816.63;5071933;28;20266;-71
2024/02/11 03:31:36;;;;;;;10.80;2.00;;;;;;;7.06;100.00;97819.25;5052664;28;20127;-71
2024/02/11 03:34:04;;;;;;;14.40;2.65;;;;;;;7.06;100.00;97815.69;5055403;28;20076;-71
2024/02/11 03:36:30;;;;;;;10.85;1.88;;;;;;;7.08;100.00;97819.72;5070023;28;20060;-71
2024/02/11 03:38:56;;;;;;;9.95;2.47;;;;;;;7.08;100.00;97813.41;5071142;28;20028;-71
2024/02/11 03:41:22;;;;;;;14.57;2.30;;;;;;;7.07;100.00;97811.78;5053273;28;20049;-71
2024/02/11 03:43:49;;;;;;;16.98;2.38;;;;;;;7.07;100.00;97820.84;5086905;28;20430;-71
2024/02/11 03:46:14;;;;;;;15.27;2.80;;;;;;;7.07;100.00;97822.81;5054500;28;20103;-72
2024/02/11 03:48:41;;;;;;;13.77;2.47;;;;;;;7.07;100.00;97815.34;5064365;28;20074;-71
2024/02/11 03:51:06;;;;;;;11.82;2.15;;;;;;;7.04;100.00;97829.81;5069673;28;20044;-71
2024/02/11 03:53:36;;;;;;;9.18;2.20;;;;;;;7.01;100.00;97824.97;5062704;28;20031;-71
2024/02/11 03:56:05;;;;;;;16.40;2.45;;;;;;;6.99;100.00;97827.25;5036913;28;20027;-71
2024/02/11 03:58:33;;;;;;;11.82;2.30;;;;;;;7.02;100.00;97831.28;5038912;28;20086;-71
2024/02/11 04:00:58;;;;;;;12.82;2.40;;;;;;;7.00;100.00;97833.59;5087616;28;20020;-71
2024/02/11 04:03:25;;;;;;;16.58;2.85;;;;;;;7.02;100.00;97843.16;5087831;28;20584;-71
2024/02/11 04:05:55;;;;;;;14.60;2.78;;;;;;;7.02;100.00;97845.09;5070613;28;20020;-71
2024/02/11 04:08:21;;;;;;;14.88;2.70;;;;;;;6.97;100.00;97853.59;5053496;28;20519;-71
2024/02/11 04:10:52;;;;;;;11.20;2.50;;;;;;;6.98;100.00;97852.44;5071475;28;20083;-71
2024/02/11 04:13:23;;;;;;;12.82;3.55;;;;;;;6.93;100.00;97865.25;5069347;28;20108;-71
2024/02/11 04:15:53;;;;;;;14.23;2.70;;;;;;;6.96;100.00;97860.22;5073879;28;20028;-71
2024/02/11 04:18:21;;;;;;;12.98;2.78;;;;;;;6.98;100.00;97869.00;5067745;28;20079;-71
2024/02/11 04:20:46;;;;;;;16.52;2.85;;;;;;;6.97;100.00;97867.38;5064117;28;20044;-71
2024/02/11 04:23:13;;;;;;;12.65;2.65;;;;;;;6.97;100.00;97872.91;5039095;28;20033;-71
2024/02/11 04:25:41;;;;;;;20.35;3.40;;;;;;;6.99;100.00;97876.13;5072212;28;20031;-71
2024/02/11 04:28:07;;;;;;;9.70;2.80;;;;;;;7.02;100.00;97876.28;5051140;28;20029;-71
2024/02/11 04:30:34;;;;;;;10.40;2.35;;;;;;;7.01;100.00;97884.88;5056439;28;20032;-71
2024/02/11 04:33:02;;;;;;;7.78;2.17;;;;;;;7.01;100.00;97880.16;5068103;28;20036;-71
2024/02/11 04:35:27;;;;;;;14.52;2.65;;;;;;;7.04;100.00;97895.25;5056735;28;20047;-71
2024/02/11 04:37:53;;;;;;;11.75;2.42;;;;;;;7.03;100.00;97890.88;5085042;28;20039;-71
2024/02/11 04:40:19;;;;;;;15.75;2.90;;;;;;;7.07;100.00;97891.81;5055976;28;20027;-71
2024/02/11 04:42:54;;;;;;;9.43;2.47;;;;;;;7.02;100.00;97897.53;5083827;28;20037;-71
2024/02/11 04:45:28;;;;;;;16.63;3.10;;;;;;;7.03;100.00;97911.00;5053000;28;20048;-71
2024/02/11 04:48:03;;;;;;;17.98;2.90;;;;;;;7.04;100.00;97912.59;5064496;28;20044;-72
2024/02/11 04:50:30;;;;;;;17.65;2.83;;;;;;;7.03;100.00;97912.94;5087724;28;20027;-71
2024/02/11 04:52:58;;;;;;;16.10;3.10;;;;;;;7.06;100.00;97915.03;5035089;28;20036;-71
2024/02/11 04:55:38;;;;;;;11.52;3.03;;;;;;;7.06;100.00;97909.53;5053603;28;20104;-71
2024/02/11 04:58:04;;;;;;;11.30;2.65;;;;;;;7.10;100.00;97913.22;5059173;28;20101;-71
2024/02/11 05:00:33;;;;;;;11.82;2.88;;;;;;;7.06;100.00;97920.56;5051120;28;20028;-71
2024/02/11 05:02:59;;;;;;;18.85;3.10;;;;;;;7.07;100.00;97911.13;5073378;28;20050;-71
2024/02/11 05:05:28;;;;;;;13.40;3.13;;;;;;;7.08;100.00;97916.31;5067416;28;20033;-71
2024/02/11 05:07:57;;;;;;;11.02;2.75;;;;;;;7.16;100.00;97925.69;5056987;28;20032;-71
2024/02/11 05:10:27;;;;;;;18.80;3.42;;;;;;;7.14;100.00;97923.25;5084730;28;20024;-71
2024/02/11 05:12:53;;;;;;;14.50;3.42;;;;;;;7.13;100.00;97923.59;5087964;28;20107;-71
2024/02/11 05:15:20;;;;;;;13.13;2.95;;;;;;;7.13;100.00;97937.38;5085688;28;20051;-71
2024/02/11 05:17:48;;;;;;;16.73;3.28;;;;;;;7.16;100.00;97945.03;5071564;28;20028;-71
2024/02/11 05:20:19;;;;;;;13.05;2.50;;;;;;;7.15;100.00;97951.66;5068236;28;20380;-71
2024/02/11 05:22:45;;;;;;;17.23;3.55;;;;;;;7.17;100.00;97960.44;5070690;28;20597;-71
2024/02/11 05:25:19;;;;;;;15.10;3.22;;;;;;;7.18;100.00;97948.25;5051951;28;20028;-71
2024/02/11 05:27:48;;;;;;;8.35;2.65;;;;;;;7.18;100.00;97948.25;5053693;28;20492;-71
2024/02/11 05:30:14;;;;;;;13.52;3.17;;;;;;;7.15;100.00;97965.47;5055069;28;20024;-71
2024/02/11 05:32:40;;;;;;;11.65;3.08;;;;;;;7.20;100.00;97962.53;5051397;28;20032;-71
2024/02/11 05:35:09;;;;;;;13.60;3.10;;;;;;;7.20;100.00;97961.72;5049345;28;20082;-71
2024/02/11 05:37:35;;;;;;;9.65;2.55;;;;;;;7.28;100.00;97971.91;5049794;28;20029;-72
2024/02/11 05:40:01;;;;;;;14.23;2.67;;;;;;;7.23;100.00;97980.38;5071539;28;20039;-71
2024/02/11 05:42:26;;;;;;;9.60;2.65;;;;;;;7.22;100.00;97978.78;5041050;28;20032;-72
2024/02/11 05:44:51;;;;;;;13.32;2.92;;;;;;;7.22;100.00;97985.09;5052917;28;20028;-71
2024/02/11 05:47:17;;;;;;;17.00;3.47;;;;;;;7.20;100.00;97986.56;5041680;28;20056;-71
2024/02/11 05:49:42;;;;;;;13.68;2.88;;;;;;;7.21;100.00;97993.69;5031412;28;20036;-71
2024/02/11 05:52:09;;;;;;;10.95;2.53;;;;;;;7.23;100.00;97988.66;5022769;28;20048;-71
2024/02/11 05:54:35;;;;;;;11.55;3.20;;;;;;;7.21;100.00;97994.50;5051253;28;20485;-71
2024/02/11 05:57:02;;;;;;;16.92;2.92;;;;;;;7.23;100.00;97997.75;5018631;28;20033;-71
2024/02/11 05:59:27;;;;;;;16.15;3.40;;;;;;;7.27;100.00;98004.22;5032639;28;20052;-71
2024/02/11 06:01:52;;;;;;;10.95;2.85;;;;;;;7.26;100.00;98002.59;5032646;28;20473;-71
2024/02/11 06:04:18;;;;;;;12.88;2.85;;;;;;;7.26;100.00;98002.59;5053586;28;20029;-71
2024/02/11 06:06:43;;;;;;;13.30;2.97;;;;;;;7.26;100.00;98008.13;5020364;28;20025;-71
2024/02/11 06:09:13;;;;;;;16.85;3.38;;;;;;;7.30;100.00;98009.09;5044983;28;20041;-71
2024/02/11 06:11:39;;;;;;;13.13;2.90;;;;;;;7.28;100.00;98018.84;5034001;28;20028;-71
2024/02/11 06:14:05;;;;;;;10.45;2.90;;;;;;;7.26;100.00;98008.13;5049630;28;20561;-71
2024/02/11 06:16:32;;;;;;;19.48;3.45;;;;;;;7.26;100.00;98008.13;5027181;28;20020;-71
2024/02/11 06:18:57;;;;;;;10.35;2.78;;;;;;;7.27;100.00;98014.44;5025189;28;20028;-72
2024/02/11 06:21:23;;;;;;;13.57;3.30;;;;;;;7.28;100.00;98016.88;5045203;28;20033;-71
2024/02/11 06:23:48;;;;;;;11.52;3.40;;;;;;;7.26;100.00;98030.19;5003643;28;20374;-71
2024/02/11 06:26:14;;;;;;;10.02;2.85;;;;;;;7.29;100.00;98028.72;5040773;28;20044;-71
2024/02/11 06:28:40;;;;;;;12.50;3.25;;;;;;;7.28;100.00;98022.41;5040801;28;20481;-71
2024/02/11 06:31:05;;;;;;;15.43;3.35;;;;;;;7.28;100.00;98027.13;5040679;28;20048;-71
2024/02/11 06:33:31;;;;;;;15.27;2.63;;;;;;;7.25;100.00;98033.31;5058586;28;20159;-71
2024/02/11 06:35:56;;;;;;;13.10;2.70;;;;;;;7.28;100.00;98038.97;5024254;28;20020;-71
2024/02/11 06:38:23;;;;;;;7.22;2.67;;;;;;;7.30;100.00;98050.50;5023798;28;20033;-71
2024/02/11 06:40:48;;;;;;;18.33;3.70;;;;;;;7.28;100.00;98041.72;5040643;28;20040;-71
2024/02/11 06:43:14;;;;;;;11.93;3.08;;;;;;;7.28;100.00;98041.72;5058231;28;20413;-71
2024/02/11 06:45:45;;;;;;;9.18;2.33;;;;;;;7.29;100.00;98045.28;5032342;28;20091;-71
2024/02/11 06:48:11;;;;;;;14.05;2.58;;;;;;;7.31;100.00;98068.66;5084712;28;20071;-71
2024/02/11 06:50:36;;;;;;;14.75;2.90;;;;;;;7.27;100.00;98070.50;5054709;28;20035;-71
2024/02/11 06:53:02;;;;;;;9.68;2.47;;;;;;;7.27;100.00;98070.50;5084859;28;20034;-71
2024/02/11 06:55:28;;;;;;;10.55;2.40;;;;;;;7.25;100.00;98077.47;5071367;28;20017;-71
2024/02/11 06:57:53;;;;;;;13.75;2.42;;;;;;;7.25;100.00;98066.44;5073390;28;20032;-71
2024/02/11 07:00:19;;;;;;;16.50;3.00;;;;;;;7.25;100.00;98083.81;5071689;28;20036;-71
2024/02/11 07:02:47;;;;;;;15.65;3.38;;;;;;;7.25;100.00;98083.00;5071067;28;20488;-71
2024/02/11 07:05:15;;;;;;;12.95;2.58;;;;;;;7.25;100.00;98086.56;5089520;28;20115;-71
2024/02/11 07:07:42;;;;;;;11.73;2.67;;;;;;;7.24;100.00;98087.69;5075275;28;20039;-71
2024/02/11 07:10:08;;;;;;;12.77;2.60;;;;;;;7.22;100.00;98092.75;5071499;28;20052;-71
2024/02/11 07:12:34;;;;;;;14.07;3.60;;;;;;;7.22;100.00;98097.47;5042190;28;20115;-71
2024/02/11 07:14:59;;;;;;;11.65;3.03;;;;;;;7.25;100.00;98108.66;5064581;28;20030;-71
2024/02/11 07:17:25;;;;;;;16.40;3.47;;;;;;;7.21;100.00;98099.41;5066114;28;20028;-71
2024/02/11 07:19:52;;;;;;;16.20;2.75;;;;;;;7.23;100.00;98112.88;5084987;28;20082;-71
2024/02/11 07:22:18;;;;;;;11.80;2.47;;;;;;;7.23;100.00;98112.88;5058064;28;20027;-71
2024/02/11 07:24:43;;;;;;;11.10;2.42;;;;;;;7.26;100.00;98117.75;5068845;28;20028;-71
2024/02/11 07:27:13;;;;;;;19.10;3.03;;;;;;;7.25;100.00;98121.66;5075553;28;20032;-71
2024/02/11 07:29:42;;;;;;;11.70;3.08;;;;;;;7.24;100.00;98120.81;5055029;28;20024;-71
2024/02/11 07:32:08;;;;;;;14.35;2.55;;;;;;;7.19;100.00;98137.59;5058980;28;20035;-71
2024/02/11 07:34:34;;;;;;;11.13;3.03;;;;;;;7.23;100.00;98130.25;5086953;28;20025;-71
2024/02/11 07:37:02;;;;;;;8.05;2.20;;;;;;;7.24;100.00;98134.63;5057602;28;20024;-71
2024/02/11 07:39:28;;;;;;;17.77;3.00;;;;;;;7.25;100.00;98138.22;5037430;28;20028;-71
2024/02/11 07:41:54;;;;;;;12.23;2.70;;;;;;;7.24;100.00;98148.44;5058027;28;20024;-71
2024/02/11 07:44:20;;;;;;;9.05;2.22;;;;;;;7.24;100.00;98155.91;5043626;28;20036;-72
2024/02/11 07:46:45;;;;;;;10.10;2.35;;;;;;;7.25;100.00;98160.31;5074210;28;20076;-71
2024/02/11 07:49:13;;;;;;;12.38;2.50;;;;;;;7.28;100.00;98170.69;5053021;28;20029;-71
2024/02/11 07:51:44;;;;;;;7.47;2.25;;;;;;;7.27;100.00;98164.34;5040960;28;20034;-70
2024/02/11 07:54:10;;;;;;;8.60;2.13;;;;;;;7.29;100.00;98173.09;5051790;28;20033;-71
2024/02/11 07:56:37;;;;;;;6.90;2.30;;;;;;;7.32;100.00;98186.25;5056825;28;20453;-71
2024/02/11 07:59:02;;;;;;;8.80;2.33;;;;;;;7.32;100.00;98200.06;5086115;28;20104;-71
2024/02/11 08:01:28;;;;;;;9.27;2.20;;;;;;;7.34;100.00;98206.06;5074036;28;20055;-71
2024/02/11 08:03:54;;;;;;;9.35;2.28;;;;;;;7.34;100.00;98213.53;5051244;28;20024;-71
2024/02/11 08:06:20;;;;;;;9.40;2.67;;;;;;;7.36;100.00;98209.31;5090029;28;20032;-71
2024/02/11 08:08:46;;;;;;;13.68;2.60;;;;;;;7.37;100.00;98216.44;5066971;28;20028;-71
2024/02/11 08:11:11;;;;;;;9.68;2.20;;;;;;;7.39;100.00;98216.94;5073673;28;20038;-71
2024/02/11 08:13:37;;;;;;;10.95;2.55;;;;;;;7.41;100.00;98221.31;5048895;28;20082;-72
2024/02/11 08:16:03;;;;;;;8.00;2.13;;;;;;;7.42;100.00;98229.28;5056642;28;20574;-74
2024/02/11 08:18:29;;;;;;;13.40;2.85;;;;;;;7.46;100.00;98234.94;5067454;28;20033;-71
2024/02/11 08:20:56;;;;;;;15.85;3.90;;;;;;;7.48;100.00;98230.72;5087011;28;20036;-71
2024/02/11 08:23:23;;;;;;;18.95;3.13;;;;;;;7.49;100.00;98237.06;5060926;28;20036;-71
2024/02/11 08:25:50;;;;;;;9.98;2.78;;;;;;;7.51;100.00;98240.31;5069520;28;20028;-72
2024/02/11 08:28:16;;;;;;;15.15;2.40;;;;;;;7.53;100.00;98249.88;5033851;28;20036;-71
2024/02/11 08:30:41;;;;;;;9.10;1.95;;;;;;;7.57;100.00;98250.84;5072477;28;20073;-72
2024/02/11 08:33:09;;;;;;;22.58;4.20;;;;;;;7.59;100.00;98253.28;5068259;28;20032;-72
2024/02/11 08:35:35;;;;;;;19.58;4.10;;;;;;;7.62;100.00;98258.16;5061082;28;20114;-71
2024/02/11 08:38:00;;;;;;;11.60;3.28;;;;;;;7.64;100.00;98266.91;5051963;28;20052;-72
2024/02/11 08:40:26;;;;;;;15.85;3.17;;;;;;;7.66;100.00;98267.41;5085103;28;20032;-72
2024/02/11 08:42:52;;;;;;;11.27;2.72;;;;;;;7.70;100.00;98276.66;5066325;28;20037;-72
2024/02/11 08:45:17;;;;;;;8.10;1.98;;;;;;;7.73;100.00;98286.22;5051984;28;20053;-73
2024/02/11 08:47:43;;;;;;;14.60;2.95;;;;;;;7.75;100.00;98283.97;5033555;28;20104;-71
2024/02/11 08:50:10;;;;;;;10.88;2.42;;;;;;;7.76;100.00;98289.13;5038148;28;20062;-71
2024/02/11 08:52:36;;;;;;;7.95;1.95;;;;;;;7.79;100.00;98290.44;5037828;28;20032;-71
2024/02/11 08:55:02;;;;;;;10.82;1.63;;;;;;;7.82;100.00;98287.00;5054459;28;20385;-71
2024/02/11 08:57:28;;;;;;;7.60;2.10;;;;;;;7.83;100.00;98297.75;5038100;28;20477;-71
2024/02/11 08:59:54;;;;;;;6.82;1.65;;;;;;;7.83;100.00;98308.81;5037865;28;20025;-71
2024/02/11 09:02:22;;;;;;;11.23;2.88;;;;;;;7.86;100.00;98310.09;5054522;28;20025;-71
2024/02/11 09:04:47;;;;;;;11.70;2.53;;;;;;;7.87;100.00;98314.47;5037965;28;20462;-71
2024/02/11 09:07:13;;;;;;;10.77;1.92;;;;;;;7.89;100.00;98314.16;5021302;28;20115;-71
2024/02/11 09:09:38;;;;;;;7.25;2.10;;;;;;;7.92;100.00;98313.50;5020953;28;20025;-71
2024/02/11 09:12:04;;;;;;;6.07;2.00;;;;;;;7.94;100.00;98314.78;5037746;28;20029;-71
2024/02/11 09:14:30;;;;;;;10.43;1.63;;;;;;;7.95;100.00;98327.44;5037756;28;20539;-71
2024/02/11 09:16:57;;;;;;;8.63;1.90;;;;;;;7.96;100.00;98336.56;5036735;28;20429;-71
2024/02/11 09:19:26;;;;;;;10.75;1.52;;;;;;;7.98;100.00;98334.28;5037639;28;20035;-71
2024/02/11 09:21:55;;;;;;;8.75;1.52;;;;;;;7.97;100.00;98329.91;5030107;28;20036;-71
2024/02/11 09:24:22;;;;;;;9.40;1.75;;;;;;;8.00;100.00;98340.28;5048699;28;20167;-71
2024/02/11 09:26:48;;;;;;;11.00;2.33;;;;;;;8.02;100.00;98346.28;5021698;28;20028;-71
2024/02/11 09:29:13;;;;;;;9.40;1.83;;;;;;;8.04;100.00;98347.56;5019258;28;20032;-71
2024/02/11 09:31:39;;;;;;;9.15;2.63;;;;;;;8.07;100.00;98359.94;5037511;28;20028;-72
2024/02/11 09:34:05;;;;;;;12.82;2.15;;;;;;;8.10;100.00;98366.75;5037835;28;20037;-71
2024/02/11 09:36:31;;;;;;;7.45;1.85;;;;;;;8.09;100.00;98371.47;5037544;28;20029;-71
2024/02/11 09:38:56;;;;;;;8.15;1.95;;;;;;;8.12;100.00;98370.81;5004229;28;20366;-71
2024/02/11 09:41:22;;;;;;;6.80;1.73;;;;;;;8.15;100.00;98369.34;5021211;28;20025;-71
2024/02/11 09:43:47;;;;;;;5.60;1.88;;;;;;;8.17;100.00;98367.06;5026926;28;20043;-71
2024/02/11 09:46:17;;;;;;;6.63;1.92;;;;;;;8.23;100.00;98374.84;5029366;28;20108;-71
2024/02/11 09:48:44;;;;;;;8.07;1.83;;;;;;;8.23;100.00;98377.63;5066311;28;20488;-71
2024/02/11 09:51:10;;;;;;;6.38;1.88;;;;;;;8.28;100.00;98374.66;5060878;28;20031;-71
2024/02/11 09:53:36;;;;;;;9.45;2.38;;;;;;;8.31;100.00;98381.50;5063669;28;20047;-71
2024/02/11 09:56:01;;;;;;;8.55;2.05;;;;;;;8.35;100.00;98384.41;5077120;28;20036;-71
2024/02/11 09:58:26;;;;;;;11.63;2.90;;;;;;;8.38;100.00;98390.06;5047084;28;20024;-71
2024/02/11 10:00:52;;;;;;;11.48;2.95;;;;;;;8.44;100.00;98393.50;5047753;28;20028;-71
2024/02/11 10:03:19;;;;;;;9.80;2.75;;;;;;;8.45;100.00;98406.22;5065057;28;20028;-71
2024/02/11 10:05:48;;;;;;;13.02;3.17;;;;;;;8.50;100.00;98404.06;5051686;28;20020;-71
2024/02/11 10:08:13;;;;;;;16.10;3.20;;;;;;;8.55;100.00;98413.31;5031348;28;20556;-72
2024/02/11 10:10:40;;;;;;;11.15;3.17;;;;;;;8.58;100.00;98415.41;5056543;28;20035;-71
2024/02/11 10:13:07;;;;;;;14.35;3.78;;;;;;;8.61;100.00;98415.59;5062921;28;20040;-72
2024/02/11 10:15:35;;;;;;;11.32;2.90;;;;;;;8.64;100.00;98422.41;5052810;28;20384;-71
2024/02/11 10:18:08;;;;;;;18.65;3.58;;;;;;;8.69;100.00;98420.28;5063568;28;20056;-71
2024/02/11 10:20:37;;;;;;;9.68;3.15;;;;;;;8.78;100.00;98433.25;5066279;28;20461;-71
2024/02/11 10:23:04;;;;;;;9.23;2.80;;;;;;;8.79;100.00;98437.63;5053358;28;20495;-72
2024/02/11 10:25:31;;;;;;;12.57;4.35;;;;;;;8.82;100.00;98448.84;5053166;28;20020;-71
2024/02/11 10:27:56;;;;;;;12.73;2.63;;;;;;;8.85;100.00;98450.16;5076237;28;20036;-72
2024/02/11 10:30:22;;;;;;;12.52;3.22;;;;;;;8.87;100.00;98450.63;5070596;28;20388;-71
2024/02/11 10:32:47;;;;;;;12.07;2.83;;;;;;;8.88;100.00;98461.34;5064456;28;20084;-71
2024/02/11 10:35:14;;;;;;;15.15;2.95;;;;;;;8.91;100.00;98452.41;5062877;28;20024;-71
2024/02/11 10:37:45;;;;;;;11.60;2.88;;;;;;;8.96;100.00;98459.69;5051199;28;20036;-71
2024/02/11 10:40:11;;;;;;;10.13;2.50;;;;;;;9.01;100.00;98461.47;5047649;28;20028;-71
2024/02/11 10:42:43;;;;;;;17.33;3.67;;;;;;;9.04;100.00;98478.22;5067858;28;20111;-71
2024/02/11 10:45:09;;;;;;;17.35;3.25;;;;;;;9.10;100.00;98476.88;5059349;28;20035;-72
2024/02/11 10:47:36;;;;;;;9.25;2.40;;;;;;;9.16;100.00;98496.91;5066408;28;20052;-72
2024/02/11 10:50:05;;;;;;;12.77;2.58;;;;;;;9.18;100.00;98491.84;5063209;28;20081;-72
2024/02/11 10:52:32;;;;;;;12.18;2.95;;;;;;;9.20;100.00;98495.09;5042598;28;20031;-71
2024/02/11 10:54:59;;;;;;;15.98;3.10;;;;;;;9.24;100.00;98496.03;5083281;28;20020;-72
2024/02/11 10:57:24;;;;;;;13.30;2.88;;;;;;;9.28;100.00;98490.66;5076400;28;20102;-72
2024/02/11 10:59:59;;;;;;;11.88;2.53;;;;;;;9.34;100.00;98508.72;5066504;28;20039;-72
2024/02/11 11:02:29;;;;;;;7.68;2.72;;;;;;;9.37;100.00;98510.81;5061972;28;20031;-71
2024/02/11 11:04:57;;;;;;;12.68;2.60;;;;;;;9.39;100.00;98525.16;5066574;28;20063;-71
2024/02/11 11:07:23;;;;;;;10.90;2.92;;;;;;;9.43;100.00;98517.78;5042340;28;20058;-72
2024/02/11 11:09:48;;;;;;;14.40;2.78;;;;;;;9.45;100.00;98532.13;5045899;28;20637;-71
2024/02/11 11:12:15;;;;;;;11.73;2.25;;;;;;;9.46;100.00;98533.72;5083751;28;20024;-71
2024/02/11 11:14:44;;;;;;;11.88;2.55;;;;;;;9.47;100.00;98546.44;5050236;28;20024;-72
2024/02/11 11:17:16;;;;;;;13.43;3.03;;;;;;;9.47;100.00;98548.38;5046875;28;20492;-72
2024/02/11 11:19:46;;;;;;;10.20;2.47;;;;;;;9.46;100.00;98544.00;5065516;28;20106;-72
2024/02/11 11:22:12;;;;;;;7.13;2.25;;;;;;;9.51;100.00;98555.72;5050635;28;20059;-71
2024/02/11 11:24:39;;;;;;;11.55;2.30;;;;;;;9.51;100.00;98555.72;5054135;28;20032;-72